createdAt,value
2023-05-24T00:01:49.665Z,78.21
2023-05-24T00:04:12.237Z,78.15
2023-05-24T00:06:37.629Z,78.06
2023-05-24T00:08:59.062Z,78.30
2023-05-24T00:11:21.047Z,78.55
2023-05-24T00:13:42.502Z,78.41
2023-05-24T00:16:04.113Z,78.40
2023-05-24T00:18:26.230Z,78.62
2023-05-24T00:20:48.083Z,78.92
2023-05-24T00:23:09.827Z,78.58
2023-05-24T00:25:31.315Z,79.00
2023-05-24T00:27:52.813Z,80.07
2023-05-24T00:30:14.390Z,81.36
2023-05-24T00:32:35.878Z,80.36
2023-05-24T00:34:57.450Z,80.39
2023-05-24T00:37:18.981Z,80.41
2023-05-24T00:39:41.407Z,80.02
2023-05-24T00:42:03.147Z,79.85
2023-05-24T00:44:24.668Z,80.11
2023-05-24T00:46:46.392Z,79.48
2023-05-24T00:49:08.938Z,79.29
2023-05-24T00:51:32.145Z,78.84
2023-05-24T00:53:54.807Z,79.58
2023-05-24T00:56:17.499Z,80.17
2023-05-24T00:58:39.321Z,80.76
2023-05-24T01:01:01.968Z,79.48
2023-05-24T01:03:23.626Z,79.94
2023-05-24T01:05:45.639Z,80.71
2023-05-24T01:08:20.461Z,80.20
2023-05-24T01:11:06.540Z,80.67
2023-05-24T01:13:36.262Z,81.75
2023-05-24T01:16:12.088Z,81.34
2023-05-24T01:18:38.898Z,81.61
2023-05-24T01:21:34.806Z,80.38
2023-05-24T01:24:29.417Z,79.25
2023-05-24T01:27:07.128Z,79.50
2023-05-24T01:29:31.299Z,77.39
2023-05-24T01:31:53.361Z,77.86
2023-05-24T01:34:14.847Z,78.52
2023-05-24T01:36:36.363Z,78.01
2023-05-24T01:38:57.909Z,79.49
2023-05-24T01:41:27.121Z,79.35
2023-05-24T01:44:00.445Z,79.75
2023-05-24T01:46:39.920Z,80.32
2023-05-24T01:49:18.161Z,78.83
2023-05-24T01:51:54.044Z,78.58
2023-05-24T01:54:18.024Z,78.23
2023-05-24T01:56:41.842Z,78.50
2023-05-24T01:59:04.261Z,78.12
2023-05-24T02:01:26.756Z,78.30
2023-05-24T02:03:48.978Z,77.62
2023-05-24T02:06:10.835Z,78.60
2023-05-24T02:08:32.443Z,77.15
2023-05-24T02:10:53.881Z,76.38
2023-05-24T02:13:18.142Z,75.39
2023-05-24T02:15:41.907Z,75.30
2023-05-24T02:18:04.208Z,76.82
2023-05-24T02:20:26.521Z,79.00
2023-05-24T02:22:49.266Z,79.39
2023-05-24T02:25:10.867Z,78.83
2023-05-24T02:27:32.336Z,79.06
2023-05-24T02:29:53.815Z,79.58
2023-05-24T02:32:15.443Z,78.90
2023-05-24T02:34:36.903Z,80.10
2023-05-24T02:36:58.851Z,80.81
2023-05-24T02:39:20.531Z,80.84
2023-05-24T02:41:41.981Z,80.52
2023-05-24T02:44:03.406Z,80.91
2023-05-24T02:46:25.005Z,79.53
2023-05-24T02:48:46.652Z,78.57
2023-05-24T02:51:08.144Z,79.13
2023-05-24T02:53:33.366Z,79.34
2023-05-24T02:55:54.845Z,79.62
2023-05-24T02:58:17.678Z,79.99
2023-05-24T03:00:39.310Z,80.31
2023-05-24T03:03:03.302Z,80.45
2023-05-24T03:05:24.931Z,80.06
2023-05-24T03:07:46.556Z,79.63
2023-05-24T03:10:08.342Z,79.39
2023-05-24T03:12:29.926Z,79.54
2023-05-24T03:14:51.469Z,78.39
2023-05-24T03:17:12.953Z,78.38
2023-05-24T03:19:34.375Z,78.35
2023-05-24T03:21:55.981Z,76.39
2023-05-24T03:24:17.447Z,76.15
2023-05-24T03:26:40.633Z,77.00
2023-05-24T03:29:02.106Z,76.81
2023-05-24T03:31:26.548Z,74.83
2023-05-24T03:33:48.153Z,75.62
2023-05-24T03:36:09.606Z,75.02
2023-05-24T03:38:31.930Z,74.99
2023-05-24T03:40:53.399Z,75.83
2023-05-24T03:43:14.856Z,75.36
2023-05-24T03:45:39.813Z,75.04
2023-05-24T03:48:01.743Z,74.95
2023-05-24T03:50:23.306Z,74.81
2023-05-24T03:52:44.741Z,74.85
2023-05-24T03:55:06.688Z,74.38
2023-05-24T03:57:28.123Z,74.42
2023-05-24T03:59:49.617Z,74.15
2023-05-24T04:02:11.183Z,74.18
2023-05-24T04:04:32.813Z,74.57
2023-05-24T04:06:54.342Z,75.13
2023-05-24T04:09:16.202Z,75.34
2023-05-24T04:11:37.690Z,76.19
2023-05-24T04:14:02.602Z,76.83
2023-05-24T04:16:24.600Z,77.19
2023-05-24T04:18:46.639Z,76.31
2023-05-24T04:21:08.234Z,77.02
2023-05-24T04:23:29.714Z,78.26
2023-05-24T04:25:51.185Z,73.73
2023-05-24T04:28:12.664Z,75.06
2023-05-24T04:30:34.142Z,74.29
2023-05-24T04:32:56.949Z,75.21
2023-05-24T04:35:18.658Z,74.91
2023-05-24T04:37:40.994Z,74.90
2023-05-24T04:40:06.033Z,76.18
2023-05-24T04:42:32.206Z,75.21
2023-05-24T04:44:53.854Z,75.10
2023-05-24T04:47:16.293Z,75.22
2023-05-24T04:49:37.804Z,76.66
2023-05-24T04:51:59.402Z,73.95
2023-05-24T04:54:20.972Z,75.13
2023-05-24T04:56:42.443Z,74.43
2023-05-24T04:59:05.861Z,75.26
2023-05-24T05:01:27.602Z,76.29
2023-05-24T05:03:49.110Z,76.36
2023-05-24T05:06:10.628Z,74.36
2023-05-24T05:08:32.080Z,73.08
2023-05-24T05:10:53.707Z,73.87
2023-05-24T05:13:15.247Z,72.84
2023-05-24T05:15:36.721Z,71.75
2023-05-24T05:17:58.238Z,71.62
2023-05-24T05:20:19.839Z,71.96
2023-05-24T05:22:48.737Z,72.15
2023-05-24T05:25:10.297Z,71.63
2023-05-24T05:27:31.786Z,72.77
2023-05-24T05:29:53.336Z,71.48
2023-05-24T05:32:15.075Z,72.42
2023-05-24T05:34:36.538Z,71.50
2023-05-24T05:36:57.959Z,70.41
2023-05-24T05:39:19.399Z,67.83
2023-05-24T05:41:46.409Z,70.02
2023-05-24T05:44:08.259Z,69.12
2023-05-24T05:46:29.787Z,68.61
2023-05-24T05:48:51.349Z,68.44
2023-05-24T05:51:13.062Z,68.28
2023-05-24T05:53:34.752Z,67.38
2023-05-24T05:55:56.246Z,66.50
2023-05-24T05:58:17.747Z,66.05
2023-05-24T06:00:40.592Z,64.47
2023-05-24T06:03:02.290Z,65.27
2023-05-24T06:05:23.912Z,65.64
2023-05-24T06:07:45.949Z,65.68
2023-05-24T06:10:07.769Z,63.57
2023-05-24T06:12:29.248Z,64.47
2023-05-24T06:14:50.706Z,65.95
2023-05-24T06:17:12.471Z,65.37
2023-05-24T06:19:34.050Z,63.75
2023-05-24T06:21:55.969Z,62.55
2023-05-24T06:24:21.508Z,61.74
2023-05-24T06:26:43.020Z,62.25
2023-05-24T06:29:04.459Z,60.67
2023-05-24T06:31:25.969Z,61.31
2023-05-24T06:33:59.742Z,61.32
2023-05-24T06:36:24.901Z,61.98
2023-05-24T06:38:46.381Z,63.37
2023-05-24T06:41:08.821Z,62.37
2023-05-24T06:43:30.758Z,63.50
2023-05-24T06:45:52.263Z,63.39
2023-05-24T06:48:13.865Z,61.89
2023-05-24T06:50:36.452Z,62.02
2023-05-24T06:52:57.909Z,60.23
2023-05-24T06:55:19.960Z,60.72
2023-05-24T06:57:41.654Z,58.57
2023-05-24T07:00:05.644Z,56.44
2023-05-24T07:02:28.647Z,57.16
2023-05-24T07:04:50.183Z,58.27
2023-05-24T07:07:13.281Z,59.09
2023-05-24T07:09:34.766Z,59.04
2023-05-24T07:11:56.255Z,59.26
2023-05-24T07:14:17.736Z,59.95
2023-05-24T07:16:39.231Z,59.91
2023-05-24T07:19:03.163Z,59.89
2023-05-24T07:21:26.176Z,61.14
2023-05-24T07:23:47.635Z,58.65
2023-05-24T07:26:09.180Z,61.72
2023-05-24T07:28:31.052Z,60.98
2023-05-24T07:30:52.815Z,59.99
2023-05-24T07:33:14.536Z,59.39
2023-05-24T07:35:36.245Z,60.20
2023-05-24T07:37:57.706Z,61.03
2023-05-24T07:40:19.170Z,59.56
2023-05-24T07:42:41.403Z,57.98
2023-05-24T07:45:03.148Z,57.55
2023-05-24T07:47:24.679Z,55.91
2023-05-24T07:49:46.334Z,55.93
2023-05-24T07:52:07.812Z,54.31
2023-05-24T07:54:29.275Z,55.09
2023-05-24T07:56:50.771Z,55.42
2023-05-24T07:59:12.259Z,54.56
2023-05-24T08:01:36.907Z,54.84
2023-05-24T08:03:58.542Z,54.24
2023-05-24T08:06:20.154Z,55.78
2023-05-24T08:08:41.654Z,54.47
2023-05-24T08:11:03.216Z,53.20
2023-05-24T08:13:24.684Z,53.32
2023-05-24T08:15:46.453Z,54.08
2023-05-24T08:18:08.039Z,53.87
2023-05-24T08:20:29.601Z,52.10
2023-05-24T08:22:51.133Z,51.95
2023-05-24T08:25:12.603Z,51.29
2023-05-24T08:27:34.093Z,51.10
2023-05-24T08:29:57.106Z,50.39
2023-05-24T08:32:18.728Z,50.77
2023-05-24T08:34:40.475Z,50.24
2023-05-24T08:37:02.090Z,48.76
2023-05-24T08:39:23.828Z,48.55
2023-05-24T08:41:57.324Z,48.80
2023-05-24T08:44:29.937Z,48.66
2023-05-24T08:46:53.815Z,48.81
2023-05-24T08:49:16.278Z,45.90
2023-05-24T08:51:39.706Z,46.28
2023-05-24T08:54:01.350Z,47.49
2023-05-24T08:56:23.250Z,46.28
2023-05-24T08:58:48.167Z,45.79
2023-05-24T09:01:11.747Z,45.96
2023-05-24T09:03:35.264Z,46.16
2023-05-24T09:05:56.888Z,46.66
2023-05-24T09:08:20.480Z,45.71
2023-05-24T09:10:54.039Z,45.69
2023-05-24T09:13:18.486Z,45.78
2023-05-24T09:15:40.105Z,44.55
2023-05-24T09:18:01.722Z,45.81
2023-05-24T09:20:23.341Z,44.43
2023-05-24T09:22:48.327Z,44.40
2023-05-24T09:25:13.181Z,45.67
2023-05-24T09:27:35.542Z,44.96
2023-05-24T09:29:57.117Z,45.09
2023-05-24T09:32:22.128Z,44.99
2023-05-24T09:34:47.239Z,44.56
2023-05-24T09:37:16.589Z,44.90
2023-05-24T09:39:39.353Z,44.03
2023-05-24T09:42:02.979Z,45.53
2023-05-24T09:44:25.707Z,45.39
2023-05-24T09:46:47.510Z,45.46
2023-05-24T09:49:09.564Z,46.19
2023-05-24T09:51:31.132Z,46.33
2023-05-24T09:53:57.078Z,45.56
2023-05-24T09:56:19.455Z,45.74
2023-05-24T09:58:42.287Z,43.61
2023-05-24T10:01:08.993Z,42.52
2023-05-24T10:03:30.670Z,41.72
2023-05-24T10:05:54.252Z,41.07
2023-05-24T10:08:16.136Z,40.38
2023-05-24T10:10:37.680Z,41.08
2023-05-24T10:13:00.463Z,40.68
2023-05-24T10:15:22.193Z,41.35
2023-05-24T10:17:43.705Z,41.32
2023-05-24T10:20:07.204Z,42.20
2023-05-24T10:22:29.306Z,41.42
2023-05-24T10:24:59.024Z,39.88
2023-05-24T10:27:24.721Z,39.27
2023-05-24T10:30:01.489Z,38.57
2023-05-24T10:32:25.271Z,39.10
2023-05-24T10:34:48.051Z,39.82
2023-05-24T10:37:09.660Z,39.40
2023-05-24T10:39:33.438Z,39.25
2023-05-24T10:41:58.089Z,39.48
2023-05-24T10:44:20.419Z,38.35
2023-05-24T10:47:15.705Z,38.15
2023-05-24T10:49:39.700Z,38.61
2023-05-24T10:52:03.000Z,37.56
2023-05-24T10:54:27.190Z,37.74
2023-05-24T10:56:50.665Z,38.14
2023-05-24T10:59:23.708Z,37.60
2023-05-24T11:01:45.373Z,37.72
2023-05-24T11:04:07.016Z,38.73
2023-05-24T11:06:49.794Z,38.14
2023-05-24T11:09:11.302Z,38.10
2023-05-24T11:11:32.859Z,38.20
2023-05-24T11:14:00.355Z,38.86
2023-05-24T11:16:37.581Z,38.97
2023-05-24T11:19:11.430Z,39.16
2023-05-24T11:21:33.712Z,39.49
2023-05-24T11:23:55.502Z,40.38
2023-05-24T11:26:17.474Z,40.66
2023-05-24T11:28:39.511Z,40.30
2023-05-24T11:31:08.416Z,40.69
2023-05-24T11:33:29.933Z,41.13
2023-05-24T11:35:52.922Z,40.46
2023-05-24T11:38:15.989Z,40.31
2023-05-24T11:40:39.188Z,40.49
2023-05-24T11:43:00.782Z,40.42
2023-05-24T11:45:22.541Z,41.26
2023-05-24T11:47:44.252Z,39.93
2023-05-24T11:50:07.067Z,40.17
2023-05-24T11:52:28.713Z,39.26
2023-05-24T11:54:50.658Z,40.20
2023-05-24T11:57:12.883Z,41.41
2023-05-24T11:59:37.836Z,41.10
2023-05-24T12:02:05.587Z,40.25
2023-05-24T12:04:29.230Z,39.37
2023-05-24T12:06:50.806Z,38.54
2023-05-24T12:09:16.844Z,37.87
2023-05-24T12:11:42.682Z,37.60
2023-05-24T12:14:05.317Z,37.71
2023-05-24T12:16:29.859Z,36.89
2023-05-24T12:19:03.006Z,38.11
2023-05-24T12:21:30.613Z,36.60
2023-05-24T12:23:52.291Z,34.75
2023-05-24T12:26:14.836Z,34.96
2023-05-24T12:28:39.244Z,35.24
2023-05-24T12:31:00.808Z,34.03
2023-05-24T12:33:23.609Z,33.75
2023-05-24T12:35:46.735Z,35.00
2023-05-24T12:38:11.551Z,34.87
2023-05-24T12:40:33.565Z,35.39
2023-05-24T12:42:58.093Z,36.02
2023-05-24T12:45:23.028Z,35.15
2023-05-24T12:47:44.585Z,35.28
2023-05-24T12:50:06.465Z,34.40
2023-05-24T12:52:28.025Z,32.10
2023-05-24T12:54:49.534Z,29.70
2023-05-24T12:57:11.175Z,28.21
2023-05-24T12:59:33.761Z,27.75
2023-05-24T13:01:55.580Z,27.04
2023-05-24T13:04:18.021Z,27.31
2023-05-24T13:06:39.473Z,27.37
2023-05-24T13:09:01.910Z,27.14
2023-05-24T13:11:25.152Z,27.38
2023-05-24T13:13:46.721Z,28.49
2023-05-24T13:16:08.993Z,28.42
2023-05-24T13:18:30.519Z,27.85
2023-05-24T13:20:52.424Z,28.45
2023-05-24T13:23:13.921Z,29.42
2023-05-24T13:25:35.429Z,30.06
2023-05-24T13:27:57.506Z,30.15
2023-05-24T13:30:19.189Z,30.35
2023-05-24T13:32:41.349Z,30.70
2023-05-24T13:35:04.601Z,30.61
2023-05-24T13:37:27.531Z,30.33
2023-05-24T13:39:50.109Z,30.17
2023-05-24T13:42:11.831Z,30.19
2023-05-24T13:44:33.338Z,30.30
2023-05-24T13:46:56.510Z,26.40
2023-05-24T13:49:18.252Z,26.08
2023-05-24T13:51:40.314Z,24.63
2023-05-24T13:54:03.011Z,25.64
2023-05-24T13:56:25.966Z,24.19
2023-05-24T13:58:47.596Z,23.39
2023-05-24T14:01:09.447Z,22.72
2023-05-24T14:03:30.931Z,21.72
2023-05-24T14:05:52.475Z,22.67
2023-05-24T14:08:14.037Z,23.68
2023-05-24T14:10:37.084Z,23.67
2023-05-24T14:13:13.195Z,24.00
2023-05-24T14:15:39.331Z,25.93
2023-05-24T14:18:01.595Z,26.39
2023-05-24T14:20:23.190Z,26.95
2023-05-24T14:22:44.735Z,26.68
2023-05-24T14:25:07.987Z,27.28
2023-05-24T14:27:29.418Z,26.80
2023-05-24T14:29:50.898Z,28.50
2023-05-24T14:32:12.436Z,30.27
2023-05-24T14:34:33.969Z,28.96
2023-05-24T14:36:55.773Z,28.86
2023-05-24T14:39:17.300Z,27.72
2023-05-24T14:41:38.820Z,25.01
2023-05-24T14:44:00.831Z,25.81
2023-05-24T14:46:22.429Z,25.50
2023-05-24T14:48:44.104Z,25.69
2023-05-24T14:51:05.596Z,26.01
2023-05-24T14:53:27.057Z,26.10
2023-05-24T14:55:48.750Z,27.36
2023-05-24T14:58:13.725Z,29.08
2023-05-24T15:00:36.643Z,29.60
2023-05-24T15:02:58.314Z,30.25
2023-05-24T15:05:19.843Z,31.45
2023-05-24T15:07:41.327Z,30.79
2023-05-24T15:10:03.103Z,31.03
2023-05-24T15:12:24.570Z,31.42
2023-05-24T15:14:46.106Z,31.93
2023-05-24T15:17:07.870Z,32.10
2023-05-24T15:19:29.385Z,32.59
2023-05-24T15:21:50.833Z,31.89
2023-05-24T15:24:13.231Z,30.60
2023-05-24T15:26:34.822Z,30.18
2023-05-24T15:28:57.891Z,27.88
2023-05-24T15:31:19.520Z,27.47
2023-05-24T15:33:41.036Z,26.06
2023-05-24T15:36:04.285Z,26.37
2023-05-24T15:38:25.777Z,24.98
2023-05-24T15:40:47.390Z,27.97
2023-05-24T15:43:08.882Z,28.29
2023-05-24T15:45:30.375Z,28.63
2023-05-24T15:47:52.004Z,28.74
2023-05-24T15:50:13.599Z,28.74
2023-05-24T15:52:35.586Z,29.08
2023-05-24T15:54:57.110Z,29.54
2023-05-24T15:57:18.563Z,29.76
2023-05-24T15:59:40.249Z,30.63
2023-05-24T16:02:01.805Z,30.87
2023-05-24T16:04:23.385Z,32.02
2023-05-24T16:06:44.944Z,32.52
2023-05-24T16:09:07.154Z,33.60
2023-05-24T16:11:28.628Z,34.22
2023-05-24T16:13:50.444Z,34.76
2023-05-24T16:16:12.235Z,33.75
2023-05-24T16:18:35.399Z,33.58
2023-05-24T16:20:56.982Z,33.79
2023-05-24T16:23:19.360Z,32.89
2023-05-24T16:25:40.982Z,32.61
2023-05-24T16:28:03.627Z,31.46
2023-05-24T16:30:25.597Z,30.87
2023-05-24T16:32:47.150Z,30.32
2023-05-24T16:35:08.749Z,29.35
2023-05-24T16:37:30.192Z,28.75
2023-05-24T16:39:51.653Z,30.41
2023-05-24T16:42:13.278Z,30.40
2023-05-24T16:44:34.742Z,30.85
2023-05-24T16:46:56.546Z,29.73
2023-05-24T16:49:18.092Z,29.86
2023-05-24T16:51:39.565Z,31.67
2023-05-24T16:54:01.285Z,30.37
2023-05-24T16:56:23.188Z,29.71
2023-05-24T16:58:44.697Z,31.20
2023-05-24T17:01:06.493Z,31.82
2023-05-24T17:03:29.031Z,32.45
2023-05-24T17:05:53.254Z,31.44
2023-05-24T17:08:14.788Z,30.20
2023-05-24T17:10:36.305Z,29.97
2023-05-24T17:12:57.901Z,29.29
2023-05-24T17:15:19.373Z,29.02
2023-05-24T17:17:40.937Z,28.51
2023-05-24T17:20:02.599Z,28.43
2023-05-24T17:22:24.137Z,27.87
2023-05-24T17:24:46.040Z,27.53
2023-05-24T17:27:07.501Z,27.40
2023-05-24T17:29:30.084Z,27.69
2023-05-24T17:31:51.590Z,28.23
2023-05-24T17:34:15.890Z,28.78
2023-05-24T17:36:37.631Z,30.18
2023-05-24T17:38:59.181Z,30.82
2023-05-24T17:41:20.732Z,31.28
2023-05-24T17:43:42.242Z,31.78
2023-05-24T17:46:06.544Z,32.21
2023-05-24T17:48:39.677Z,34.32
2023-05-24T17:51:02.246Z,34.55
2023-05-24T17:55:51.775Z,35.44
2023-05-24T17:58:13.249Z,36.21
2023-05-24T18:00:34.711Z,35.98
2023-05-24T18:02:56.204Z,36.35
2023-05-24T18:05:17.807Z,36.89
2023-05-24T18:07:39.379Z,36.83
2023-05-24T18:10:01.373Z,37.30
2023-05-24T18:12:22.857Z,37.10
2023-05-24T18:14:44.560Z,37.12
2023-05-24T18:17:06.133Z,37.96
2023-05-24T18:19:27.672Z,38.19
2023-05-24T18:21:49.284Z,38.08
2023-05-24T18:24:10.884Z,37.73
2023-05-24T18:26:32.435Z,38.08
2023-05-24T18:28:54.561Z,38.38
2023-05-24T18:31:17.090Z,39.46
2023-05-24T18:33:38.875Z,39.15
2023-05-24T18:36:00.729Z,39.39
2023-05-24T18:38:22.187Z,39.49
2023-05-24T18:40:43.629Z,40.25
2023-05-24T18:43:05.178Z,40.73
2023-05-24T18:45:26.617Z,41.59
2023-05-24T18:47:48.158Z,41.08
2023-05-24T18:50:10.130Z,41.72
2023-05-24T18:52:31.592Z,42.15
2023-05-24T18:54:55.013Z,42.59
2023-05-24T18:57:16.482Z,43.13
2023-05-24T18:59:38.742Z,43.16
2023-05-24T19:02:03.385Z,43.44
2023-05-24T19:04:24.879Z,43.84
2023-05-24T19:06:46.366Z,44.42
2023-05-24T19:09:07.842Z,45.87
2023-05-24T19:11:30.444Z,45.65
2023-05-24T19:13:51.950Z,45.83
2023-05-24T19:16:17.451Z,46.01
2023-05-24T19:18:39.315Z,46.25
2023-05-24T19:21:00.887Z,46.60
2023-05-24T19:23:22.414Z,46.80
2023-05-24T19:25:44.312Z,47.47
2023-05-24T19:28:06.313Z,48.25
2023-05-24T19:30:28.002Z,48.41
2023-05-24T19:32:49.602Z,49.62
2023-05-24T19:35:12.262Z,49.89
2023-05-24T19:37:33.740Z,49.68
2023-05-24T19:39:55.210Z,49.92
2023-05-24T19:42:16.651Z,50.13
2023-05-24T19:44:38.106Z,50.63
2023-05-24T19:46:59.630Z,50.86
2023-05-24T19:49:21.110Z,50.79
2023-05-24T19:51:42.600Z,51.25
2023-05-24T19:54:04.432Z,51.28
2023-05-24T19:56:26.114Z,53.87
2023-05-24T19:58:47.605Z,53.00
2023-05-24T20:01:09.092Z,53.50
2023-05-24T20:03:31.358Z,53.22
2023-05-24T20:05:52.885Z,52.97
2023-05-24T20:08:16.587Z,53.12
2023-05-24T20:10:38.942Z,53.65
2023-05-24T20:13:00.480Z,53.78
2023-05-24T20:15:27.405Z,53.52
2023-05-24T20:17:48.971Z,53.83
2023-05-24T20:20:11.546Z,53.98
2023-05-24T20:22:33.042Z,54.26
2023-05-24T20:24:54.474Z,54.74
2023-05-24T20:27:16.057Z,56.52
2023-05-24T20:29:37.499Z,56.80
2023-05-24T20:31:59.082Z,56.19
2023-05-24T20:34:21.093Z,56.10
2023-05-24T20:36:43.851Z,56.29
2023-05-24T20:39:05.564Z,56.28
2023-05-24T20:41:30.331Z,56.12
2023-05-24T20:43:51.813Z,56.43
2023-05-24T20:46:14.042Z,56.08
2023-05-24T20:48:35.598Z,57.57
2023-05-24T20:50:57.444Z,57.01
2023-05-24T20:53:19.011Z,57.20
2023-05-24T20:55:40.482Z,56.89
2023-05-24T20:58:01.977Z,57.26
2023-05-24T21:00:23.438Z,58.26
2023-05-24T21:02:45.044Z,58.14
2023-05-24T21:05:07.149Z,58.05
2023-05-24T21:07:28.670Z,58.01
2023-05-24T21:09:50.229Z,58.92
2023-05-24T21:12:11.840Z,61.73
2023-05-24T21:14:33.301Z,60.92
2023-05-24T21:16:55.129Z,60.03
2023-05-24T21:19:16.649Z,59.38
2023-05-24T21:21:38.200Z,59.59
2023-05-24T21:23:59.690Z,59.33
2023-05-24T21:26:22.710Z,59.46
2023-05-24T21:28:44.921Z,59.56
2023-05-24T21:31:06.813Z,62.45
2023-05-24T21:33:28.329Z,62.21
2023-05-24T21:35:49.842Z,61.98
2023-05-24T21:38:11.635Z,61.64
2023-05-24T21:40:33.131Z,60.96
2023-05-24T21:42:54.613Z,60.81
2023-05-24T21:45:16.098Z,60.70
2023-05-24T21:47:37.583Z,60.67
2023-05-24T21:49:59.206Z,60.58
2023-05-24T21:52:20.722Z,61.51
2023-05-24T21:54:42.187Z,63.61
2023-05-24T21:57:03.824Z,62.35
2023-05-24T21:59:25.300Z,61.59
2023-05-24T22:01:46.881Z,62.32
2023-05-24T22:04:09.646Z,61.72
2023-05-24T22:06:31.259Z,61.48
2023-05-24T22:08:52.761Z,61.50
2023-05-24T22:11:14.275Z,61.13
2023-05-24T22:13:35.788Z,60.89
2023-05-24T22:15:57.665Z,62.83
2023-05-24T22:18:21.189Z,63.72
2023-05-24T22:20:44.856Z,63.79
2023-05-24T22:23:06.728Z,63.10
2023-05-24T22:25:28.585Z,63.07
2023-05-24T22:27:50.528Z,63.26
2023-05-24T22:30:13.078Z,62.79
2023-05-24T22:32:34.620Z,62.71
2023-05-24T22:34:56.131Z,62.52
2023-05-24T22:37:17.686Z,62.39
2023-05-24T22:39:39.203Z,62.46
2023-05-24T22:42:01.697Z,62.60
2023-05-24T22:44:23.252Z,62.76
2023-05-24T22:46:44.838Z,66.24
2023-05-24T22:49:06.511Z,64.98
2023-05-24T22:51:28.629Z,64.59
2023-05-24T22:53:52.568Z,66.05
2023-05-24T22:56:14.443Z,66.50
2023-05-24T22:58:36.816Z,67.52
2023-05-24T23:00:58.376Z,65.64
2023-05-24T23:03:21.932Z,65.13
2023-05-24T23:05:43.816Z,64.89
2023-05-24T23:08:05.702Z,65.63
2023-05-24T23:10:27.169Z,65.83
2023-05-24T23:12:48.742Z,65.07
2023-05-24T23:15:11.511Z,64.46
2023-05-24T23:17:33.018Z,64.62
2023-05-24T23:19:54.589Z,64.87
2023-05-24T23:22:19.465Z,69.06
2023-05-24T23:24:44.578Z,67.09
2023-05-24T23:27:06.483Z,66.03
2023-05-24T23:29:27.971Z,65.70
2023-05-24T23:31:49.457Z,66.81
2023-05-24T23:34:11.165Z,68.53
2023-05-24T23:36:32.675Z,67.28
2023-05-24T23:38:54.153Z,67.71
2023-05-24T23:41:16.092Z,66.93
2023-05-24T23:43:37.848Z,66.69
2023-05-24T23:45:59.302Z,68.01
2023-05-24T23:48:23.516Z,68.05
2023-05-24T23:50:53.976Z,67.69
2023-05-24T23:53:16.068Z,67.46
2023-05-24T23:55:37.607Z,71.42
2023-05-24T23:58:00.357Z,70.54
